sensor_id;sensor_type;location;lat;lon;timestamp;pressure;altitude;pressure_sealevel;temperature;humidity
52735;BME280;38631;47.572;10.704;2023-01-29T00:01:06;93207.75;;;-4.79;96.97
52735;BME280;38631;47.572;10.704;2023-01-29T00:03:33;93205.31;;;-4.87;95.53
52735;BME280;38631;47.572;10.704;2023-01-29T00:05:58;93208.56;;;-5.19;97.04
52735;BME280;38631;47.572;10.704;2023-01-29T00:08:24;93210.72;;;-4.88;96.96
52735;BME280;38631;47.572;10.704;2023-01-29T00:10:50;93209.06;;;-5.03;96.64
52735;BME280;38631;47.572;10.704;2023-01-29T00:13:16;93208.66;;;-5.00;97.32
52735;BME280;38631;47.572;10.704;2023-01-29T00:15:41;93197.56;;;-4.93;97.81
52735;BME280;38631;47.572;10.704;2023-01-29T00:18:06;93209.91;;;-4.89;97.30
52735;BME280;38631;47.572;10.704;2023-01-29T00:20:32;93196.56;;;-4.86;97.34
52735;BME280;38631;47.572;10.704;2023-01-29T00:22:58;93205.94;;;-4.85;97.27
52735;BME280;38631;47.572;10.704;2023-01-29T00:25:23;93208.59;;;-4.65;97.59
52735;BME280;38631;47.572;10.704;2023-01-29T00:27:49;93201.75;;;-4.79;97.16
52735;BME280;38631;47.572;10.704;2023-01-29T00:30:14;93201.75;;;-4.86;98.46
52735;BME280;38631;47.572;10.704;2023-01-29T00:32:43;93208.16;;;-4.75;98.45
52735;BME280;38631;47.572;10.704;2023-01-29T00:35:10;93198.22;;;-4.71;98.59
52735;BME280;38631;47.572;10.704;2023-01-29T00:37:35;93203.00;;;-4.68;97.50
52735;BME280;38631;47.572;10.704;2023-01-29T00:40:01;93199.91;;;-4.98;97.34
52735;BME280;38631;47.572;10.704;2023-01-29T00:42:26;93194.66;;;-5.12;98.12
52735;BME280;38631;47.572;10.704;2023-01-29T00:45:11;93194.75;;;-4.98;99.69
52735;BME280;38631;47.572;10.704;2023-01-29T00:47:36;93190.22;;;-4.83;98.29
52735;BME280;38631;47.572;10.704;2023-01-29T00:50:05;93197.94;;;-4.90;98.55
52735;BME280;38631;47.572;10.704;2023-01-29T00:52:30;93199.16;;;-4.79;99.12
52735;BME280;38631;47.572;10.704;2023-01-29T00:54:58;93212.38;;;-4.67;98.70
52735;BME280;38631;47.572;10.704;2023-01-29T00:57:25;93206.22;;;-4.66;98.83
52735;BME280;38631;47.572;10.704;2023-01-29T00:59:51;93226.94;;;-4.60;98.76
52735;BME280;38631;47.572;10.704;2023-01-29T01:02:17;93218.66;;;-4.90;97.37
52735;BME280;38631;47.572;10.704;2023-01-29T01:05:01;93229.94;;;-5.46;98.59
52735;BME280;38631;47.572;10.704;2023-01-29T01:07:28;93232.31;;;-5.79;100.00
52735;BME280;38631;47.572;10.704;2023-01-29T01:09:53;93239.69;;;-5.13;100.00
52735;BME280;38631;47.572;10.704;2023-01-29T01:12:38;93232.56;;;-4.97;99.98
52735;BME280;38631;47.572;10.704;2023-01-29T01:15:03;93232.47;;;-5.17;98.75
52735;BME280;38631;47.572;10.704;2023-01-29T01:17:29;93240.56;;;-4.99;100.00
52735;BME280;38631;47.572;10.704;2023-01-29T01:19:54;93235.34;;;-5.06;99.86
52735;BME280;38631;47.572;10.704;2023-01-29T01:22:20;93237.44;;;-5.23;99.53
52735;BME280;38631;47.572;10.704;2023-01-29T01:24:45;93235.22;;;-4.91;100.00
52735;BME280;38631;47.572;10.704;2023-01-29T01:27:11;93243.84;;;-4.70;100.00
52735;BME280;38631;47.572;10.704;2023-01-29T01:29:36;93252.06;;;-4.60;100.00
52735;BME280;38631;47.572;10.704;2023-01-29T01:32:03;93251.03;;;-4.66;100.00
52735;BME280;38631;47.572;10.704;2023-01-29T01:34:28;93241.28;;;-4.64;100.00
52735;BME280;38631;47.572;10.704;2023-01-29T01:36:54;93244.81;;;-4.78;100.00
52735;BME280;38631;47.572;10.704;2023-01-29T01:39:23;93250.59;;;-4.76;100.00
52735;BME280;38631;47.572;10.704;2023-01-29T01:41:48;93246.03;;;-4.74;100.00
52735;BME280;38631;47.572;10.704;2023-01-29T01:44:50;93249.47;;;-4.60;100.00
52735;BME280;38631;47.572;10.704;2023-01-29T01:47:16;93261.41;;;-4.66;100.00
52735;BME280;38631;47.572;10.704;2023-01-29T01:49:43;93250.69;;;-4.56;100.00
52735;BME280;38631;47.572;10.704;2023-01-29T01:52:10;93248.84;;;-4.69;100.00
52735;BME280;38631;47.572;10.704;2023-01-29T01:54:37;93241.28;;;-4.57;100.00
52735;BME280;38631;47.572;10.704;2023-01-29T01:57:08;93238.72;;;-4.50;100.00
52735;BME280;38631;47.572;10.704;2023-01-29T01:59:42;93232.31;;;-4.61;100.00
52735;BME280;38631;47.572;10.704;2023-01-29T02:02:11;93237.91;;;-4.58;100.00
52735;BME280;38631;47.572;10.704;2023-01-29T02:04:55;93234.72;;;-4.60;100.00
52735;BME280;38631;47.572;10.704;2023-01-29T02:07:41;93251.22;;;-4.74;100.00
52735;BME280;38631;47.572;10.704;2023-01-29T02:10:26;93248.63;;;-4.67;100.00
52735;BME280;38631;47.572;10.704;2023-01-29T02:12:53;93246.44;;;-4.70;100.00
52735;BME280;38631;47.572;10.704;2023-01-29T02:15:19;93245.56;;;-4.84;100.00
52735;BME280;38631;47.572;10.704;2023-01-29T02:17:44;93247.94;;;-4.96;100.00
52735;BME280;38631;47.572;10.704;2023-01-29T02:20:27;93255.22;;;-4.71;100.00
52735;BME280;38631;47.572;10.704;2023-01-29T02:30:16;93252.97;;;-4.81;100.00
52735;BME280;38631;47.572;10.704;2023-01-29T02:32:58;93248.13;;;-4.97;100.00
52735;BME280;38631;47.572;10.704;2023-01-29T02:35:28;93254.13;;;-4.90;100.00
52735;BME280;38631;47.572;10.704;2023-01-29T02:41:03;93254.81;;;-4.68;100.00
52735;BME280;38631;47.572;10.704;2023-01-29T02:43:46;93250.22;;;-4.73;100.00
52735;BME280;38631;47.572;10.704;2023-01-29T02:46:20;93259.03;;;-5.09;100.00
52735;BME280;38631;47.572;10.704;2023-01-29T02:49:22;93266.53;;;-5.21;100.00
52735;BME280;38631;47.572;10.704;2023-01-29T02:54:30;93260.91;;;-4.89;100.00
52735;BME280;38631;47.572;10.704;2023-01-29T02:57:00;93268.88;;;-4.91;100.00
52735;BME280;38631;47.572;10.704;2023-01-29T02:59:35;93265.22;;;-5.03;100.00
52735;BME280;38631;47.572;10.704;2023-01-29T03:02:10;93262.81;;;-5.05;100.00
52735;BME280;38631;47.572;10.704;2023-01-29T03:04:41;93252.47;;;-5.05;100.00
52735;BME280;38631;47.572;10.704;2023-01-29T03:07:15;93252.09;;;-5.65;100.00
52735;BME280;38631;47.572;10.704;2023-01-29T03:10:03;93245.66;;;-5.47;100.00
52735;BME280;38631;47.572;10.704;2023-01-29T03:12:32;93242.44;;;-5.14;100.00
52735;BME280;38631;47.572;10.704;2023-01-29T03:15:09;93238.09;;;-5.07;100.00
52735;BME280;38631;47.572;10.704;2023-01-29T03:17:42;93229.59;;;-4.94;100.00
52735;BME280;38631;47.572;10.704;2023-01-29T03:20:14;93231.41;;;-4.95;100.00
52735;BME280;38631;47.572;10.704;2023-01-29T03:22:43;93233.94;;;-5.08;100.00
52735;BME280;38631;47.572;10.704;2023-01-29T03:25:10;93228.94;;;-5.10;100.00
52735;BME280;38631;47.572;10.704;2023-01-29T03:27:58;93221.75;;;-5.14;100.00
52735;BME280;38631;47.572;10.704;2023-01-29T03:30:54;93220.25;;;-5.72;100.00
52735;BME280;38631;47.572;10.704;2023-01-29T03:33:48;93215.31;;;-5.25;100.00
52735;BME280;38631;47.572;10.704;2023-01-29T03:36:21;93214.75;;;-5.21;100.00
52735;BME280;38631;47.572;10.704;2023-01-29T03:38:49;93214.25;;;-5.44;100.00
52735;BME280;38631;47.572;10.704;2023-01-29T03:41:27;93196.69;;;-5.14;100.00
52735;BME280;38631;47.572;10.704;2023-01-29T03:44:16;93203.34;;;-5.33;99.88
52735;BME280;38631;47.572;10.704;2023-01-29T03:46:49;93191.34;;;-5.40;100.00
52735;BME280;38631;47.572;10.704;2023-01-29T03:49:30;93199.19;;;-5.27;98.24
52735;BME280;38631;47.572;10.704;2023-01-29T03:52:03;93202.97;;;-6.21;99.07
52735;BME280;38631;47.572;10.704;2023-01-29T03:55:12;93210.03;;;-6.30;100.00
52735;BME280;38631;47.572;10.704;2023-01-29T03:57:44;93209.41;;;-6.10;99.79
52735;BME280;38631;47.572;10.704;2023-01-29T04:00:13;93208.63;;;-6.11;99.29
52735;BME280;38631;47.572;10.704;2023-01-29T04:02:54;93217.03;;;-6.02;100.00
52735;BME280;38631;47.572;10.704;2023-01-29T04:05:24;93213.47;;;-6.01;100.00
52735;BME280;38631;47.572;10.704;2023-01-29T04:08:03;93210.13;;;-6.23;100.00
52735;BME280;38631;47.572;10.704;2023-01-29T04:10:32;93203.97;;;-6.22;100.00
52735;BME280;38631;47.572;10.704;2023-01-29T04:13:07;93208.56;;;-6.82;100.00
52735;BME280;38631;47.572;10.704;2023-01-29T04:15:39;93215.47;;;-6.24;100.00
52735;BME280;38631;47.572;10.704;2023-01-29T04:18:06;93217.81;;;-6.30;100.00
52735;BME280;38631;47.572;10.704;2023-01-29T04:20:31;93210.53;;;-6.62;100.00
52735;BME280;38631;47.572;10.704;2023-01-29T04:22:57;93207.31;;;-7.22;100.00
52735;BME280;38631;47.572;10.704;2023-01-29T04:25:27;93191.13;;;-6.58;100.00
52735;BME280;38631;47.572;10.704;2023-01-29T04:30:44;93186.63;;;-6.28;100.00
52735;BME280;38631;47.572;10.704;2023-01-29T04:36:08;93167.81;;;-5.94;100.00
52735;BME280;38631;47.572;10.704;2023-01-29T04:46:18;93151.00;;;-6.04;100.00
52735;BME280;38631;47.572;10.704;2023-01-29T04:54:15;93137.94;;;-6.24;99.18
52735;BME280;38631;47.572;10.704;2023-01-29T04:57:25;93143.94;;;-6.45;97.41
52735;BME280;38631;47.572;10.704;2023-01-29T05:00:04;93148.31;;;-6.46;97.01
52735;BME280;38631;47.572;10.704;2023-01-29T05:02:36;93151.22;;;-6.56;95.32
52735;BME280;38631;47.572;10.704;2023-01-29T05:05:03;93147.34;;;-6.66;96.28
52735;BME280;38631;47.572;10.704;2023-01-29T05:07:31;93148.38;;;-7.55;97.25
52735;BME280;38631;47.572;10.704;2023-01-29T05:09:59;93159.50;;;-7.03;96.86
52735;BME280;38631;47.572;10.704;2023-01-29T05:12:26;93165.81;;;-7.42;98.18
52735;BME280;38631;47.572;10.704;2023-01-29T05:14:53;93156.69;;;-6.87;98.11
52735;BME280;38631;47.572;10.704;2023-01-29T05:17:21;93165.34;;;-6.73;96.92
52735;BME280;38631;47.572;10.704;2023-01-29T05:19:47;93176.38;;;-7.37;95.01
52735;BME280;38631;47.572;10.704;2023-01-29T05:22:15;93189.31;;;-7.15;95.01
52735;BME280;38631;47.572;10.704;2023-01-29T05:24:41;93185.72;;;-7.36;96.17
52735;BME280;38631;47.572;10.704;2023-01-29T05:27:14;93193.66;;;-7.01;95.42
52735;BME280;38631;47.572;10.704;2023-01-29T05:30:00;93202.59;;;-7.78;94.54
52735;BME280;38631;47.572;10.704;2023-01-29T05:32:25;93201.19;;;-7.80;97.30
52735;BME280;38631;47.572;10.704;2023-01-29T05:34:50;93197.88;;;-7.30;97.34
52735;BME280;38631;47.572;10.704;2023-01-29T05:37:16;93201.28;;;-7.44;94.12
52735;BME280;38631;47.572;10.704;2023-01-29T05:39:41;93197.00;;;-7.22;95.54
52735;BME280;38631;47.572;10.704;2023-01-29T05:42:06;93202.31;;;-7.09;95.66
52735;BME280;38631;47.572;10.704;2023-01-29T05:44:32;93214.09;;;-7.36;94.01
52735;BME280;38631;47.572;10.704;2023-01-29T05:46:57;93213.91;;;-7.20;94.33
52735;BME280;38631;47.572;10.704;2023-01-29T05:49:22;93211.72;;;-7.01;94.15
52735;BME280;38631;47.572;10.704;2023-01-29T05:51:48;93206.78;;;-7.32;91.36
52735;BME280;38631;47.572;10.704;2023-01-29T05:54:13;93217.00;;;-7.84;92.05
52735;BME280;38631;47.572;10.704;2023-01-29T05:56:39;93216.56;;;-7.57;96.11
52735;BME280;38631;47.572;10.704;2023-01-29T05:59:04;93221.41;;;-7.40;93.85
52735;BME280;38631;47.572;10.704;2023-01-29T06:01:30;93238.28;;;-7.22;92.65
52735;BME280;38631;47.572;10.704;2023-01-29T06:03:55;93251.31;;;-7.83;94.43
52735;BME280;38631;47.572;10.704;2023-01-29T06:06:21;93263.81;;;-7.42;94.20
52735;BME280;38631;47.572;10.704;2023-01-29T06:08:46;93272.97;;;-7.40;93.28
52735;BME280;38631;47.572;10.704;2023-01-29T06:11:13;93280.09;;;-7.12;93.66
52735;BME280;38631;47.572;10.704;2023-01-29T06:13:38;93288.16;;;-7.00;92.61
52735;BME280;38631;47.572;10.704;2023-01-29T06:16:08;93286.84;;;-7.93;92.21
52735;BME280;38631;47.572;10.704;2023-01-29T06:18:34;93287.69;;;-7.63;92.56
52735;BME280;38631;47.572;10.704;2023-01-29T06:21:01;93291.47;;;-7.89;95.01
52735;BME280;38631;47.572;10.704;2023-01-29T06:23:27;93295.06;;;-7.60;92.85
52735;BME280;38631;47.572;10.704;2023-01-29T06:25:52;93292.78;;;-7.70;92.68
52735;BME280;38631;47.572;10.704;2023-01-29T06:28:17;93282.47;;;-7.70;92.72
52735;BME280;38631;47.572;10.704;2023-01-29T06:30:43;93286.47;;;-7.67;93.20
52735;BME280;38631;47.572;10.704;2023-01-29T06:33:08;93288.19;;;-7.97;93.07
52735;BME280;38631;47.572;10.704;2023-01-29T06:35:33;93296.34;;;-7.56;92.33
52735;BME280;38631;47.572;10.704;2023-01-29T06:37:59;93292.78;;;-7.40;91.08
52735;BME280;38631;47.572;10.704;2023-01-29T06:40:24;93293.47;;;-7.61;90.84
52735;BME280;38631;47.572;10.704;2023-01-29T06:42:49;93287.06;;;-8.03;90.29
52735;BME280;38631;47.572;10.704;2023-01-29T06:45:15;93290.28;;;-8.01;91.29
52735;BME280;38631;47.572;10.704;2023-01-29T06:47:40;93292.47;;;-7.90;91.96
52735;BME280;38631;47.572;10.704;2023-01-29T06:50:05;93289.78;;;-7.96;91.05
52735;BME280;38631;47.572;10.704;2023-01-29T06:52:31;93286.28;;;-8.04;91.80
52735;BME280;38631;47.572;10.704;2023-01-29T06:54:56;93284.44;;;-7.95;90.68
52735;BME280;38631;47.572;10.704;2023-01-29T06:57:22;93275.75;;;-8.17;91.41
52735;BME280;38631;47.572;10.704;2023-01-29T06:59:47;93273.69;;;-7.98;91.83
52735;BME280;38631;47.572;10.704;2023-01-29T07:02:13;93270.38;;;-8.07;90.93
52735;BME280;38631;47.572;10.704;2023-01-29T07:04:39;93273.75;;;-7.69;90.97
52735;BME280;38631;47.572;10.704;2023-01-29T07:07:06;93261.91;;;-7.63;89.62
52735;BME280;38631;47.572;10.704;2023-01-29T07:09:40;93258.72;;;-7.65;90.20
52735;BME280;38631;47.572;10.704;2023-01-29T07:12:06;93264.59;;;-7.42;89.28
52735;BME280;38631;47.572;10.704;2023-01-29T07:14:31;93261.84;;;-7.70;87.34
52735;BME280;38631;47.572;10.704;2023-01-29T07:16:56;93270.34;;;-7.84;89.53
52735;BME280;38631;47.572;10.704;2023-01-29T07:19:22;93258.38;;;-7.62;89.37
52735;BME280;38631;47.572;10.704;2023-01-29T07:21:48;93264.06;;;-7.52;89.54
52735;BME280;38631;47.572;10.704;2023-01-29T07:24:13;93265.31;;;-7.48;89.73
52735;BME280;38631;47.572;10.704;2023-01-29T07:26:38;93271.44;;;-7.49;89.48
52735;BME280;38631;47.572;10.704;2023-01-29T07:29:04;93259.34;;;-7.48;88.93
52735;BME280;38631;47.572;10.704;2023-01-29T07:31:29;93258.66;;;-7.42;89.08
52735;BME280;38631;47.572;10.704;2023-01-29T07:34:00;93248.50;;;-7.44;89.00
52735;BME280;38631;47.572;10.704;2023-01-29T07:36:26;93255.88;;;-7.41;88.55
52735;BME280;38631;47.572;10.704;2023-01-29T07:38:52;93259.19;;;-7.47;88.77
52735;BME280;38631;47.572;10.704;2023-01-29T07:41:17;93262.72;;;-7.63;90.16
52735;BME280;38631;47.572;10.704;2023-01-29T07:43:42;93259.00;;;-7.30;89.08
52735;BME280;38631;47.572;10.704;2023-01-29T07:46:08;93268.88;;;-7.34;88.80
52735;BME280;38631;47.572;10.704;2023-01-29T07:48:33;93268.25;;;-7.21;90.67
52735;BME280;38631;47.572;10.704;2023-01-29T07:50:58;93266.03;;;-7.24;88.15
52735;BME280;38631;47.572;10.704;2023-01-29T07:53:24;93261.22;;;-8.10;89.58
52735;BME280;38631;47.572;10.704;2023-01-29T07:55:50;93253.44;;;-7.87;90.07
52735;BME280;38631;47.572;10.704;2023-01-29T07:58:15;93242.78;;;-8.59;93.27
52735;BME280;38631;47.572;10.704;2023-01-29T08:00:41;93259.00;;;-7.98;94.51
52735;BME280;38631;47.572;10.704;2023-01-29T08:03:10;93253.75;;;-7.22;92.68
52735;BME280;38631;47.572;10.704;2023-01-29T08:05:36;93245.63;;;-6.89;89.89
52735;BME280;38631;47.572;10.704;2023-01-29T08:08:01;93241.91;;;-7.17;89.35
52735;BME280;38631;47.572;10.704;2023-01-29T08:10:27;93241.38;;;-7.12;91.68
52735;BME280;38631;47.572;10.704;2023-01-29T08:12:57;93231.09;;;-6.90;90.96
52735;BME280;38631;47.572;10.704;2023-01-29T08:15:23;93229.09;;;-6.74;90.36
52735;BME280;38631;47.572;10.704;2023-01-29T08:17:48;93223.06;;;-7.17;91.52
52735;BME280;38631;47.572;10.704;2023-01-29T08:20:14;93227.25;;;-7.31;93.57
52735;BME280;38631;47.572;10.704;2023-01-29T08:22:39;93215.97;;;-6.93;92.64
52735;BME280;38631;47.572;10.704;2023-01-29T08:25:04;93219.31;;;-7.14;93.16
52735;BME280;38631;47.572;10.704;2023-01-29T08:27:30;93206.38;;;-6.63;92.01
52735;BME280;38631;47.572;10.704;2023-01-29T08:29:55;93213.94;;;-6.19;91.46
52735;BME280;38631;47.572;10.704;2023-01-29T08:32:21;93210.81;;;-6.36;90.70
52735;BME280;38631;47.572;10.704;2023-01-29T08:34:46;93213.75;;;-6.39;91.00
52735;BME280;38631;47.572;10.704;2023-01-29T08:37:11;93211.84;;;-6.30;92.29
52735;BME280;38631;47.572;10.704;2023-01-29T08:39:37;93204.94;;;-6.23;92.92
52735;BME280;38631;47.572;10.704;2023-01-29T08:42:02;93212.28;;;-6.26;94.46
52735;BME280;38631;47.572;10.704;2023-01-29T08:44:28;93208.38;;;-6.16;93.72
52735;BME280;38631;47.572;10.704;2023-01-29T08:46:53;93215.53;;;-6.18;93.59
52735;BME280;38631;47.572;10.704;2023-01-29T08:49:18;93215.28;;;-6.01;92.92
52735;BME280;38631;47.572;10.704;2023-01-29T08:51:44;93217.88;;;-5.95;93.53
52735;BME280;38631;47.572;10.704;2023-01-29T08:54:09;93207.13;;;-5.98;93.24
52735;BME280;38631;47.572;10.704;2023-01-29T08:56:35;93201.63;;;-6.17;94.60
52735;BME280;38631;47.572;10.704;2023-01-29T08:59:00;93200.81;;;-5.89;94.68
52735;BME280;38631;47.572;10.704;2023-01-29T09:01:25;93203.88;;;-5.79;93.89
52735;BME280;38631;47.572;10.704;2023-01-29T09:03:51;93206.94;;;-5.62;93.54
52735;BME280;38631;47.572;10.704;2023-01-29T09:06:17;93197.09;;;-5.80;93.16
52735;BME280;38631;47.572;10.704;2023-01-29T09:08:42;93212.47;;;-5.72;93.88
52735;BME280;38631;47.572;10.704;2023-01-29T09:11:08;93219.81;;;-5.40;93.46
52735;BME280;38631;47.572;10.704;2023-01-29T09:13:33;93220.22;;;-5.44;92.62
52735;BME280;38631;47.572;10.704;2023-01-29T09:16:00;93239.94;;;-5.71;92.33
52735;BME280;38631;47.572;10.704;2023-01-29T09:18:26;93247.00;;;-5.79;93.12
52735;BME280;38631;47.572;10.704;2023-01-29T09:20:52;93248.34;;;-5.62;93.38
52735;BME280;38631;47.572;10.704;2023-01-29T09:23:18;93256.81;;;-5.47;92.99
52735;BME280;38631;47.572;10.704;2023-01-29T09:25:43;93262.28;;;-5.63;94.82
52735;BME280;38631;47.572;10.704;2023-01-29T09:28:09;93259.41;;;-5.47;93.95
52735;BME280;38631;47.572;10.704;2023-01-29T09:30:36;93264.13;;;-5.22;94.07
52735;BME280;38631;47.572;10.704;2023-01-29T09:33:06;93263.25;;;-5.36;93.81
52735;BME280;38631;47.572;10.704;2023-01-29T09:35:31;93262.75;;;-5.18;93.88
52735;BME280;38631;47.572;10.704;2023-01-29T09:37:57;93271.94;;;-5.15;92.77
52735;BME280;38631;47.572;10.704;2023-01-29T09:40:25;93270.69;;;-5.26;92.60
52735;BME280;38631;47.572;10.704;2023-01-29T09:42:56;93286.63;;;-5.23;92.54
52735;BME280;38631;47.572;10.704;2023-01-29T09:45:30;93287.91;;;-5.05;91.96
52735;BME280;38631;47.572;10.704;2023-01-29T09:47:59;93287.88;;;-5.12;92.28
52735;BME280;38631;47.572;10.704;2023-01-29T09:50:33;93284.91;;;-5.09;91.69
52735;BME280;38631;47.572;10.704;2023-01-29T09:53:06;93297.75;;;-4.87;90.75
52735;BME280;38631;47.572;10.704;2023-01-29T09:55:42;93294.16;;;-4.93;90.86
52735;BME280;38631;47.572;10.704;2023-01-29T09:58:14;93303.16;;;-4.82;92.66
52735;BME280;38631;47.572;10.704;2023-01-29T10:09:33;93316.22;;;-4.97;93.67
52735;BME280;38631;47.572;10.704;2023-01-29T10:12:30;93318.25;;;-4.92;92.51
52735;BME280;38631;47.572;10.704;2023-01-29T10:17:55;93325.53;;;-4.74;92.35
52735;BME280;38631;47.572;10.704;2023-01-29T10:20:45;93325.50;;;-4.81;92.09
52735;BME280;38631;47.572;10.704;2023-01-29T10:25:46;93327.41;;;-4.55;92.10
52735;BME280;38631;47.572;10.704;2023-01-29T10:28:24;93321.28;;;-4.41;92.05
52735;BME280;38631;47.572;10.704;2023-01-29T10:31:03;93320.53;;;-4.28;92.09
52735;BME280;38631;47.572;10.704;2023-01-29T10:33:42;93320.72;;;-4.36;90.40
52735;BME280;38631;47.572;10.704;2023-01-29T10:36:22;93309.13;;;-4.40;89.79
52735;BME280;38631;47.572;10.704;2023-01-29T10:38:50;93308.97;;;-4.25;88.55
52735;BME280;38631;47.572;10.704;2023-01-29T10:41:25;93308.97;;;-4.25;87.48
52735;BME280;38631;47.572;10.704;2023-01-29T10:55:31;93297.50;;;-3.70;89.36
52735;BME280;38631;47.572;10.704;2023-01-29T10:58:18;93291.09;;;-3.54;88.44
52735;BME280;38631;47.572;10.704;2023-01-29T11:00:46;93290.53;;;-3.56;88.14
52735;BME280;38631;47.572;10.704;2023-01-29T11:03:24;93286.53;;;-3.52;89.88
52735;BME280;38631;47.572;10.704;2023-01-29T11:08:30;93283.91;;;-3.72;88.80
52735;BME280;38631;47.572;10.704;2023-01-29T11:11:07;93281.94;;;-3.56;88.75
52735;BME280;38631;47.572;10.704;2023-01-29T11:13:52;93288.34;;;-3.45;88.26
52735;BME280;38631;47.572;10.704;2023-01-29T11:16:18;93280.16;;;-3.36;87.78
52735;BME280;38631;47.572;10.704;2023-01-29T11:18:58;93285.13;;;-3.54;87.59
52735;BME280;38631;47.572;10.704;2023-01-29T11:21:25;93280.53;;;-3.52;88.08
52735;BME280;38631;47.572;10.704;2023-01-29T11:24:12;93281.34;;;-3.45;89.12
52735;BME280;38631;47.572;10.704;2023-01-29T11:26:41;93290.72;;;-3.37;88.87
52735;BME280;38631;47.572;10.704;2023-01-29T11:29:33;93287.69;;;-3.14;88.88
52735;BME280;38631;47.572;10.704;2023-01-29T11:32:05;93276.53;;;-3.28;88.12
52735;BME280;38631;47.572;10.704;2023-01-29T11:34:31;93274.94;;;-3.36;88.49
52735;BME280;38631;47.572;10.704;2023-01-29T11:36:59;93263.97;;;-3.38;88.21
52735;BME280;38631;47.572;10.704;2023-01-29T11:39:26;93268.78;;;-3.48;88.96
52735;BME280;38631;47.572;10.704;2023-01-29T11:44:31;93261.75;;;-3.34;89.94
52735;BME280;38631;47.572;10.704;2023-01-29T11:47:24;93268.53;;;-3.20;88.68
52735;BME280;38631;47.572;10.704;2023-01-29T11:49:59;93268.16;;;-3.23;90.33
52735;BME280;38631;47.572;10.704;2023-01-29T11:52:38;93268.16;;;-3.37;91.15
52735;BME280;38631;47.572;10.704;2023-01-29T11:55:25;93269.94;;;-3.44;91.77
52735;BME280;38631;47.572;10.704;2023-01-29T11:57:59;93262.94;;;-3.37;91.41
52735;BME280;38631;47.572;10.704;2023-01-29T12:00:34;93269.75;;;-3.36;90.73
52735;BME280;38631;47.572;10.704;2023-01-29T12:03:20;93264.94;;;-3.26;91.01
52735;BME280;38631;47.572;10.704;2023-01-29T12:06:07;93263.94;;;-3.18;90.80
52735;BME280;38631;47.572;10.704;2023-01-29T12:08:36;93257.94;;;-3.18;89.92
52735;BME280;38631;47.572;10.704;2023-01-29T12:11:07;93261.16;;;-3.23;89.75
52735;BME280;38631;47.572;10.704;2023-01-29T12:13:33;93245.75;;;-3.24;89.05
52735;BME280;38631;47.572;10.704;2023-01-29T12:16:14;93237.59;;;-3.41;89.94
52735;BME280;38631;47.572;10.704;2023-01-29T12:18:47;93237.19;;;-3.32;90.49
52735;BME280;38631;47.572;10.704;2023-01-29T12:21:48;93229.94;;;-3.10;89.48
52735;BME280;38631;47.572;10.704;2023-01-29T12:24:37;93219.56;;;-3.16;89.44
52735;BME280;38631;47.572;10.704;2023-01-29T12:32:48;93184.59;;;-3.14;88.85
52735;BME280;38631;47.572;10.704;2023-01-29T12:35:35;93169.97;;;-2.95;88.30
52735;BME280;38631;47.572;10.704;2023-01-29T12:38:18;93157.59;;;-2.99;89.45
52735;BME280;38631;47.572;10.704;2023-01-29T12:40:48;93156.59;;;-2.98;89.56
52735;BME280;38631;47.572;10.704;2023-01-29T12:43:17;93141.63;;;-3.10;89.72
52735;BME280;38631;47.572;10.704;2023-01-29T12:45:47;93135.91;;;-3.18;88.99
52735;BME280;38631;47.572;10.704;2023-01-29T12:48:23;93126.81;;;-2.96;89.21
52735;BME280;38631;47.572;10.704;2023-01-29T12:50:51;93123.63;;;-3.05;88.79
52735;BME280;38631;47.572;10.704;2023-01-29T12:53:54;93133.06;;;-3.10;89.19
52735;BME280;38631;47.572;10.704;2023-01-29T12:56:34;93131.81;;;-3.01;88.63
52735;BME280;38631;47.572;10.704;2023-01-29T12:59:08;93133.91;;;-3.23;88.15
52735;BME280;38631;47.572;10.704;2023-01-29T13:01:49;93147.03;;;-3.11;88.13
52735;BME280;38631;47.572;10.704;2023-01-29T13:07:12;93157.03;;;-3.08;87.63
52735;BME280;38631;47.572;10.704;2023-01-29T13:09:43;93165.13;;;-2.85;87.60
52735;BME280;38631;47.572;10.704;2023-01-29T13:12:17;93174.50;;;-2.84;87.20
52735;BME280;38631;47.572;10.704;2023-01-29T13:14:58;93177.16;;;-3.04;87.70
52735;BME280;38631;47.572;10.704;2023-01-29T13:17:41;93170.44;;;-3.18;88.09
52735;BME280;38631;47.572;10.704;2023-01-29T13:20:15;93183.63;;;-3.13;88.08
52735;BME280;38631;47.572;10.704;2023-01-29T13:22:43;93178.84;;;-3.16;88.37
52735;BME280;38631;47.572;10.704;2023-01-29T13:25:17;93167.19;;;-3.07;88.36
52735;BME280;38631;47.572;10.704;2023-01-29T13:27:44;93166.41;;;-3.14;88.28
52735;BME280;38631;47.572;10.704;2023-01-29T13:30:33;93156.84;;;-3.13;88.90
52735;BME280;38631;47.572;10.704;2023-01-29T13:33:02;93152.78;;;-2.96;89.03
52735;BME280;38631;47.572;10.704;2023-01-29T13:35:40;93156.59;;;-2.98;88.42
52735;BME280;38631;47.572;10.704;2023-01-29T13:38:27;93158.41;;;-3.06;89.84
52735;BME280;38631;47.572;10.704;2023-01-29T13:41:00;93156.78;;;-3.00;88.66
52735;BME280;38631;47.572;10.704;2023-01-29T13:43:32;93156.78;;;-3.00;88.63
52735;BME280;38631;47.572;10.704;2023-01-29T13:46:08;93152.97;;;-2.97;87.42
52735;BME280;38631;47.572;10.704;2023-01-29T13:48:40;93153.56;;;-2.95;88.29
52735;BME280;38631;47.572;10.704;2023-01-29T13:51:10;93143.47;;;-2.78;87.52
52735;BME280;38631;47.572;10.704;2023-01-29T13:53:42;93135.50;;;-2.84;87.41
52735;BME280;38631;47.572;10.704;2023-01-29T13:56:45;93122.84;;;-3.05;88.67
52735;BME280;38631;47.572;10.704;2023-01-29T13:59:47;93116.88;;;-3.12;88.90
52735;BME280;38631;47.572;10.704;2023-01-29T14:02:26;93116.41;;;-2.96;89.36
52735;BME280;38631;47.572;10.704;2023-01-29T14:07:58;93106.38;;;-2.86;89.05
52735;BME280;38631;47.572;10.704;2023-01-29T14:10:34;93101.28;;;-2.74;88.71
52735;BME280;38631;47.572;10.704;2023-01-29T14:15:31;93086.50;;;-2.73;88.23
52735;BME280;38631;47.572;10.704;2023-01-29T14:23:20;93080.09;;;-2.71;88.14
52735;BME280;38631;47.572;10.704;2023-01-29T14:25:47;93075.16;;;-2.54;87.53
52735;BME280;38631;47.572;10.704;2023-01-29T14:28:18;93065.50;;;-2.72;87.70
52735;BME280;38631;47.572;10.704;2023-01-29T14:30:46;93061.78;;;-2.83;87.69